sensor_id;sensor_type;location;lat;lon;timestamp;temperature;humidity
21770;DHT22;11046;49.558;8.674;2022-09-01T00:01:50;17.50;62.60
21770;DHT22;11046;49.558;8.674;2022-09-01T00:04:52;17.50;62.80
21770;DHT22;11046;49.558;8.674;2022-09-01T00:07:57;17.50;62.70
21770;DHT22;11046;49.558;8.674;2022-09-01T00:10:58;17.50;62.80
21770;DHT22;11046;49.558;8.674;2022-09-01T00:14:00;17.40;62.90
21770;DHT22;11046;49.558;8.674;2022-09-01T00:17:03;17.40;63.00
21770;DHT22;11046;49.558;8.674;2022-09-01T00:20:05;17.50;63.20
21770;DHT22;11046;49.558;8.674;2022-09-01T00:23:06;17.40;63.00
21770;DHT22;11046;49.558;8.674;2022-09-01T00:26:07;17.40;63.10
21770;DHT22;11046;49.558;8.674;2022-09-01T00:29:08;17.40;63.20
21770;DHT22;11046;49.558;8.674;2022-09-01T00:32:10;17.30;63.50
21770;DHT22;11046;49.558;8.674;2022-09-01T00:35:12;17.30;63.70
21770;DHT22;11046;49.558;8.674;2022-09-01T00:38:13;17.30;63.80
21770;DHT22;11046;49.558;8.674;2022-09-01T00:41:15;17.30;63.80
21770;DHT22;11046;49.558;8.674;2022-09-01T00:44:20;17.40;64.10
21770;DHT22;11046;49.558;8.674;2022-09-01T00:47:26;17.30;64.10
21770;DHT22;11046;49.558;8.674;2022-09-01T00:50:27;17.30;63.90
21770;DHT22;11046;49.558;8.674;2022-09-01T00:53:28;17.30;64.20
21770;DHT22;11046;49.558;8.674;2022-09-01T00:56:31;17.30;64.40
21770;DHT22;11046;49.558;8.674;2022-09-01T00:59:31;17.30;64.50
21770;DHT22;11046;49.558;8.674;2022-09-01T01:02:32;17.30;64.40
21770;DHT22;11046;49.558;8.674;2022-09-01T01:05:38;17.30;64.80
21770;DHT22;11046;49.558;8.674;2022-09-01T01:08:43;17.30;65.00
21770;DHT22;11046;49.558;8.674;2022-09-01T01:11:58;17.20;65.20
21770;DHT22;11046;49.558;8.674;2022-09-01T01:14:59;17.20;65.40
21770;DHT22;11046;49.558;8.674;2022-09-01T01:18:00;17.20;65.60
21770;DHT22;11046;49.558;8.674;2022-09-01T01:21:06;17.20;65.70
21770;DHT22;11046;49.558;8.674;2022-09-01T01:24:29;17.20;65.90
21770;DHT22;11046;49.558;8.674;2022-09-01T01:27:32;17.20;66.00
21770;DHT22;11046;49.558;8.674;2022-09-01T01:30:35;17.10;66.10
21770;DHT22;11046;49.558;8.674;2022-09-01T01:33:40;17.10;66.20
21770;DHT22;11046;49.558;8.674;2022-09-01T01:36:42;17.10;66.40
21770;DHT22;11046;49.558;8.674;2022-09-01T01:39:47;17.20;66.40
21770;DHT22;11046;49.558;8.674;2022-09-01T01:42:50;17.20;66.40
21770;DHT22;11046;49.558;8.674;2022-09-01T01:45:53;17.20;66.40
21770;DHT22;11046;49.558;8.674;2022-09-01T01:49:03;17.20;66.40
21770;DHT22;11046;49.558;8.674;2022-09-01T01:52:05;17.10;66.60
21770;DHT22;11046;49.558;8.674;2022-09-01T01:55:06;17.10;66.70
21770;DHT22;11046;49.558;8.674;2022-09-01T01:58:14;17.10;67.60
21770;DHT22;11046;49.558;8.674;2022-09-01T02:01:17;17.10;66.70
21770;DHT22;11046;49.558;8.674;2022-09-01T02:04:19;17.10;66.90
21770;DHT22;11046;49.558;8.674;2022-09-01T02:07:20;17.10;67.10
21770;DHT22;11046;49.558;8.674;2022-09-01T02:10:25;17.10;67.20
21770;DHT22;11046;49.558;8.674;2022-09-01T02:13:27;17.10;67.20
21770;DHT22;11046;49.558;8.674;2022-09-01T02:16:31;17.10;67.00
21770;DHT22;11046;49.558;8.674;2022-09-01T02:19:33;17.10;67.20
21770;DHT22;11046;49.558;8.674;2022-09-01T02:22:37;17.00;67.20
21770;DHT22;11046;49.558;8.674;2022-09-01T02:25:40;17.00;67.30
21770;DHT22;11046;49.558;8.674;2022-09-01T02:28:45;17.00;67.30
21770;DHT22;11046;49.558;8.674;2022-09-01T02:31:51;17.00;67.30
21770;DHT22;11046;49.558;8.674;2022-09-01T02:34:51;16.90;67.50
21770;DHT22;11046;49.558;8.674;2022-09-01T02:37:56;16.90;67.50
21770;DHT22;11046;49.558;8.674;2022-09-01T02:41:01;16.80;67.40
21770;DHT22;11046;49.558;8.674;2022-09-01T02:44:03;16.80;67.70
21770;DHT22;11046;49.558;8.674;2022-09-01T02:47:11;16.70;68.20
21770;DHT22;11046;49.558;8.674;2022-09-01T02:50:13;16.60;68.50
21770;DHT22;11046;49.558;8.674;2022-09-01T02:53:16;16.50;68.80
21770;DHT22;11046;49.558;8.674;2022-09-01T02:56:22;16.40;69.10
21770;DHT22;11046;49.558;8.674;2022-09-01T02:59:25;16.30;69.50
21770;DHT22;11046;49.558;8.674;2022-09-01T03:02:29;16.20;69.80
21770;DHT22;11046;49.558;8.674;2022-09-01T03:05:31;16.30;70.00
21770;DHT22;11046;49.558;8.674;2022-09-01T03:08:33;16.20;70.00
21770;DHT22;11046;49.558;8.674;2022-09-01T03:11:42;16.20;70.30
21770;DHT22;11046;49.558;8.674;2022-09-01T03:14:46;16.20;70.30
21770;DHT22;11046;49.558;8.674;2022-09-01T03:17:47;16.10;70.80
21770;DHT22;11046;49.558;8.674;2022-09-01T03:20:48;16.00;70.70
21770;DHT22;11046;49.558;8.674;2022-09-01T03:23:51;16.00;70.70
21770;DHT22;11046;49.558;8.674;2022-09-01T03:26:52;15.90;71.20
21770;DHT22;11046;49.558;8.674;2022-09-01T03:29:53;15.90;71.40
21770;DHT22;11046;49.558;8.674;2022-09-01T03:32:58;15.90;71.50
21770;DHT22;11046;49.558;8.674;2022-09-01T03:35:59;15.80;71.70
21770;DHT22;11046;49.558;8.674;2022-09-01T03:39:00;15.70;72.20
21770;DHT22;11046;49.558;8.674;2022-09-01T03:42:03;15.70;72.50
21770;DHT22;11046;49.558;8.674;2022-09-01T03:45:05;15.70;72.60
21770;DHT22;11046;49.558;8.674;2022-09-01T03:48:10;15.70;73.00
21770;DHT22;11046;49.558;8.674;2022-09-01T03:51:11;15.60;73.20
21770;DHT22;11046;49.558;8.674;2022-09-01T03:54:13;15.70;73.30
21770;DHT22;11046;49.558;8.674;2022-09-01T03:57:14;15.70;73.20
21770;DHT22;11046;49.558;8.674;2022-09-01T04:00:16;15.70;73.20
21770;DHT22;11046;49.558;8.674;2022-09-01T04:03:24;15.60;73.30
21770;DHT22;11046;49.558;8.674;2022-09-01T04:06:25;15.60;73.60
21770;DHT22;11046;49.558;8.674;2022-09-01T04:09:26;15.60;73.70
21770;DHT22;11046;49.558;8.674;2022-09-01T04:12:26;15.60;74.00
21770;DHT22;11046;49.558;8.674;2022-09-01T04:15:28;15.50;74.10
21770;DHT22;11046;49.558;8.674;2022-09-01T04:18:31;15.60;74.30
21770;DHT22;11046;49.558;8.674;2022-09-01T04:21:32;15.60;74.30
21770;DHT22;11046;49.558;8.674;2022-09-01T04:24:33;15.50;74.20
21770;DHT22;11046;49.558;8.674;2022-09-01T04:27:36;15.60;74.40
21770;DHT22;11046;49.558;8.674;2022-09-01T04:30:40;15.60;74.60
21770;DHT22;11046;49.558;8.674;2022-09-01T04:33:42;15.50;74.60
21770;DHT22;11046;49.558;8.674;2022-09-01T04:36:46;15.60;74.50
21770;DHT22;11046;49.558;8.674;2022-09-01T04:39:52;15.60;74.30
21770;DHT22;11046;49.558;8.674;2022-09-01T04:42:54;15.60;74.50
21770;DHT22;11046;49.558;8.674;2022-09-01T04:45:55;15.40;74.50
21770;DHT22;11046;49.558;8.674;2022-09-01T04:48:59;15.40;74.70
21770;DHT22;11046;49.558;8.674;2022-09-01T04:52:00;15.30;75.00
21770;DHT22;11046;49.558;8.674;2022-09-01T04:55:01;15.30;75.20
21770;DHT22;11046;49.558;8.674;2022-09-01T04:58:03;15.30;75.40
21770;DHT22;11046;49.558;8.674;2022-09-01T05:01:20;15.30;75.60
21770;DHT22;11046;49.558;8.674;2022-09-01T05:04:23;15.20;76.20
21770;DHT22;11046;49.558;8.674;2022-09-01T05:07:27;15.20;76.10
21770;DHT22;11046;49.558;8.674;2022-09-01T05:10:28;15.10;76.40
21770;DHT22;11046;49.558;8.674;2022-09-01T05:13:45;15.10;76.50
21770;DHT22;11046;49.558;8.674;2022-09-01T05:16:46;15.10;76.60
21770;DHT22;11046;49.558;8.674;2022-09-01T05:19:48;15.10;76.70
21770;DHT22;11046;49.558;8.674;2022-09-01T05:22:50;15.20;76.90
21770;DHT22;11046;49.558;8.674;2022-09-01T05:25:52;15.20;76.70
21770;DHT22;11046;49.558;8.674;2022-09-01T05:28:57;15.30;76.50
21770;DHT22;11046;49.558;8.674;2022-09-01T05:31:59;15.30;76.70
21770;DHT22;11046;49.558;8.674;2022-09-01T05:35:05;15.40;76.70
21770;DHT22;11046;49.558;8.674;2022-09-01T05:38:08;15.40;77.00
21770;DHT22;11046;49.558;8.674;2022-09-01T05:41:15;15.40;77.00
21770;DHT22;11046;49.558;8.674;2022-09-01T05:44:16;15.50;77.10
21770;DHT22;11046;49.558;8.674;2022-09-01T05:47:18;15.60;77.00
21770;DHT22;11046;49.558;8.674;2022-09-01T05:50:21;15.70;77.10
21770;DHT22;11046;49.558;8.674;2022-09-01T05:53:22;15.80;77.10
21770;DHT22;11046;49.558;8.674;2022-09-01T05:56:26;15.90;77.10
21770;DHT22;11046;49.558;8.674;2022-09-01T05:59:28;16.10;76.80
21770;DHT22;11046;49.558;8.674;2022-09-01T06:02:40;16.20;76.50
21770;DHT22;11046;49.558;8.674;2022-09-01T06:05:43;16.20;76.20
21770;DHT22;11046;49.558;8.674;2022-09-01T06:08:49;16.40;76.00
21770;DHT22;11046;49.558;8.674;2022-09-01T06:11:51;16.40;76.60
21770;DHT22;11046;49.558;8.674;2022-09-01T06:14:55;16.60;75.60
21770;DHT22;11046;49.558;8.674;2022-09-01T06:17:57;16.70;75.30
21770;DHT22;11046;49.558;8.674;2022-09-01T06:20:58;16.80;75.00
21770;DHT22;11046;49.558;8.674;2022-09-01T06:24:03;17.00;74.70
21770;DHT22;11046;49.558;8.674;2022-09-01T06:27:07;17.20;74.50
21770;DHT22;11046;49.558;8.674;2022-09-01T06:30:11;17.40;74.00
21770;DHT22;11046;49.558;8.674;2022-09-01T06:33:25;17.60;73.70
21770;DHT22;11046;49.558;8.674;2022-09-01T06:36:26;17.80;73.40
21770;DHT22;11046;49.558;8.674;2022-09-01T06:39:26;18.00;72.80
21770;DHT22;11046;49.558;8.674;2022-09-01T06:42:28;18.30;72.40
21770;DHT22;11046;49.558;8.674;2022-09-01T06:45:38;18.50;71.60
21770;DHT22;11046;49.558;8.674;2022-09-01T06:48:41;18.70;70.90
21770;DHT22;11046;49.558;8.674;2022-09-01T06:51:46;19.10;70.30
21770;DHT22;11046;49.558;8.674;2022-09-01T06:54:51;19.40;69.30
21770;DHT22;11046;49.558;8.674;2022-09-01T06:57:53;19.70;68.80
21770;DHT22;11046;49.558;8.674;2022-09-01T07:00:55;19.90;68.00
21770;DHT22;11046;49.558;8.674;2022-09-01T07:03:56;20.20;67.50
21770;DHT22;11046;49.558;8.674;2022-09-01T07:07:23;20.60;67.20
21770;DHT22;11046;49.558;8.674;2022-09-01T07:10:59;20.90;65.70
21770;DHT22;11046;49.558;8.674;2022-09-01T07:14:16;21.30;64.70
21770;DHT22;11046;49.558;8.674;2022-09-01T07:17:19;21.40;64.30
21770;DHT22;11046;49.558;8.674;2022-09-01T07:20:24;21.80;63.40
21770;DHT22;11046;49.558;8.674;2022-09-01T07:23:26;22.10;62.00
21770;DHT22;11046;49.558;8.674;2022-09-01T07:26:29;22.20;60.50
21770;DHT22;11046;49.558;8.674;2022-09-01T07:29:30;22.00;59.50
21770;DHT22;11046;49.558;8.674;2022-09-01T07:32:31;21.70;59.40
21770;DHT22;11046;49.558;8.674;2022-09-01T07:35:33;21.30;59.50
21770;DHT22;11046;49.558;8.674;2022-09-01T07:38:38;21.00;59.90
21770;DHT22;11046;49.558;8.674;2022-09-01T07:41:39;20.90;60.00
21770;DHT22;11046;49.558;8.674;2022-09-01T07:45:10;20.80;60.10
21770;DHT22;11046;49.558;8.674;2022-09-01T07:48:22;20.70;60.40
21770;DHT22;11046;49.558;8.674;2022-09-01T07:51:24;20.80;60.40
21770;DHT22;11046;49.558;8.674;2022-09-01T07:54:26;20.80;60.00
21770;DHT22;11046;49.558;8.674;2022-09-01T07:57:27;20.90;60.00
21770;DHT22;11046;49.558;8.674;2022-09-01T08:00:31;21.00;59.80
21770;DHT22;11046;49.558;8.674;2022-09-01T08:03:40;21.20;59.30
21770;DHT22;11046;49.558;8.674;2022-09-01T08:06:40;21.20;59.10
21770;DHT22;11046;49.558;8.674;2022-09-01T08:09:42;21.20;59.00
21770;DHT22;11046;49.558;8.674;2022-09-01T08:12:43;21.20;58.80
21770;DHT22;11046;49.558;8.674;2022-09-01T08:15:44;21.10;58.50
21770;DHT22;11046;49.558;8.674;2022-09-01T08:18:45;21.00;58.50
21770;DHT22;11046;49.558;8.674;2022-09-01T08:21:55;20.90;58.80
21770;DHT22;11046;49.558;8.674;2022-09-01T08:25:00;21.00;58.80
21770;DHT22;11046;49.558;8.674;2022-09-01T08:28:03;21.00;58.70
21770;DHT22;11046;49.558;8.674;2022-09-01T08:31:07;21.00;58.40
21770;DHT22;11046;49.558;8.674;2022-09-01T08:34:08;21.10;58.30
21770;DHT22;11046;49.558;8.674;2022-09-01T08:37:12;21.20;58.40
21770;DHT22;11046;49.558;8.674;2022-09-01T08:40:18;21.50;58.20
21770;DHT22;11046;49.558;8.674;2022-09-01T08:46:43;21.80;57.20
21770;DHT22;11046;49.558;8.674;2022-09-01T08:49:47;21.80;57.10
21770;DHT22;11046;49.558;8.674;2022-09-01T08:53:25;21.90;57.00
21770;DHT22;11046;49.558;8.674;2022-09-01T08:56:27;21.90;56.70
21770;DHT22;11046;49.558;8.674;2022-09-01T08:59:28;21.90;57.20
21770;DHT22;11046;49.558;8.674;2022-09-01T09:09:19;22.50;55.80
21770;DHT22;11046;49.558;8.674;2022-09-01T09:12:48;22.80;55.60
21770;DHT22;11046;49.558;8.674;2022-09-01T09:15:55;23.20;54.80
21770;DHT22;11046;49.558;8.674;2022-09-01T09:19:02;23.40;54.50
21770;DHT22;11046;49.558;8.674;2022-09-01T09:22:12;23.30;54.30
21770;DHT22;11046;49.558;8.674;2022-09-01T09:25:16;23.20;54.10
21770;DHT22;11046;49.558;8.674;2022-09-01T09:28:17;23.10;53.70
21770;DHT22;11046;49.558;8.674;2022-09-01T09:31:36;23.10;53.80
21770;DHT22;11046;49.558;8.674;2022-09-01T09:34:43;23.10;53.70
21770;DHT22;11046;49.558;8.674;2022-09-01T09:37:43;23.10;53.80
21770;DHT22;11046;49.558;8.674;2022-09-01T09:41:05;23.30;53.30
21770;DHT22;11046;49.558;8.674;2022-09-01T09:44:20;23.30;52.40
21770;DHT22;11046;49.558;8.674;2022-09-01T09:47:44;23.30;52.20
21770;DHT22;11046;49.558;8.674;2022-09-01T09:50:46;23.30;52.00
21770;DHT22;11046;49.558;8.674;2022-09-01T09:53:47;23.10;52.50
21770;DHT22;11046;49.558;8.674;2022-09-01T09:57:01;22.90;53.10
21770;DHT22;11046;49.558;8.674;2022-09-01T10:00:32;22.90;53.30
21770;DHT22;11046;49.558;8.674;2022-09-01T10:03:55;23.00;52.70
21770;DHT22;11046;49.558;8.674;2022-09-01T10:06:56;23.10;52.40
21770;DHT22;11046;49.558;8.674;2022-09-01T10:10:00;23.00;52.50
21770;DHT22;11046;49.558;8.674;2022-09-01T10:13:10;23.00;53.00
21770;DHT22;11046;49.558;8.674;2022-09-01T10:16:22;23.00;53.80
21770;DHT22;11046;49.558;8.674;2022-09-01T10:19:25;23.00;53.40
21770;DHT22;11046;49.558;8.674;2022-09-01T10:22:27;23.00;53.50
21770;DHT22;11046;49.558;8.674;2022-09-01T10:25:30;23.00;53.40
21770;DHT22;11046;49.558;8.674;2022-09-01T10:28:38;23.10;53.40
21770;DHT22;11046;49.558;8.674;2022-09-01T10:31:41;23.10;53.10
21770;DHT22;11046;49.558;8.674;2022-09-01T10:34:42;23.00;53.10
21770;DHT22;11046;49.558;8.674;2022-09-01T10:37:44;23.00;53.00
21770;DHT22;11046;49.558;8.674;2022-09-01T10:40:47;23.10;52.70
21770;DHT22;11046;49.558;8.674;2022-09-01T10:43:48;23.20;52.50
21770;DHT22;11046;49.558;8.674;2022-09-01T10:46:53;23.40;52.30
21770;DHT22;11046;49.558;8.674;2022-09-01T10:49:59;23.50;52.00
21770;DHT22;11046;49.558;8.674;2022-09-01T10:53:03;23.50;51.90
21770;DHT22;11046;49.558;8.674;2022-09-01T10:56:19;23.40;51.40
21770;DHT22;11046;49.558;8.674;2022-09-01T11:02:25;23.50;51.10
21770;DHT22;11046;49.558;8.674;2022-09-01T11:05:26;23.50;50.50
21770;DHT22;11046;49.558;8.674;2022-09-01T11:15:35;23.80;49.90
21770;DHT22;11046;49.558;8.674;2022-09-01T11:18:35;24.20;50.70
21770;DHT22;11046;49.558;8.674;2022-09-01T11:21:37;25.00;50.20
21770;DHT22;11046;49.558;8.674;2022-09-01T11:34:17;26.30;46.00
21770;DHT22;11046;49.558;8.674;2022-09-01T11:37:32;25.80;46.40
21770;DHT22;11046;49.558;8.674;2022-09-01T11:40:41;25.20;46.70
21770;DHT22;11046;49.558;8.674;2022-09-01T11:47:40;24.60;47.30
21770;DHT22;11046;49.558;8.674;2022-09-01T11:50:57;24.50;48.00
21770;DHT22;11046;49.558;8.674;2022-09-01T11:54:27;24.40;47.20
21770;DHT22;11046;49.558;8.674;2022-09-01T11:57:44;24.30;47.40
21770;DHT22;11046;49.558;8.674;2022-09-01T12:04:29;24.90;47.80
21770;DHT22;11046;49.558;8.674;2022-09-01T12:07:49;25.50;47.70
21770;DHT22;11046;49.558;8.674;2022-09-01T12:11:25;26.00;46.60
21770;DHT22;11046;49.558;8.674;2022-09-01T12:14:33;26.40;45.80
21770;DHT22;11046;49.558;8.674;2022-09-01T12:17:39;26.60;45.90
21770;DHT22;11046;49.558;8.674;2022-09-01T12:20:45;26.90;45.80
21770;DHT22;11046;49.558;8.674;2022-09-01T12:23:51;27.10;45.30
21770;DHT22;11046;49.558;8.674;2022-09-01T12:27:02;27.20;44.70
21770;DHT22;11046;49.558;8.674;2022-09-01T12:30:07;27.00;44.20
21770;DHT22;11046;49.558;8.674;2022-09-01T12:33:16;26.50;44.30
21770;DHT22;11046;49.558;8.674;2022-09-01T12:36:38;26.20;44.90
21770;DHT22;11046;49.558;8.674;2022-09-01T12:39:43;26.10;45.10
21770;DHT22;11046;49.558;8.674;2022-09-01T12:43:00;25.90;45.30
21770;DHT22;11046;49.558;8.674;2022-09-01T12:46:12;25.70;45.40
21770;DHT22;11046;49.558;8.674;2022-09-01T12:49:25;25.50;45.60
21770;DHT22;11046;49.558;8.674;2022-09-01T12:52:58;25.40;45.80
21770;DHT22;11046;49.558;8.674;2022-09-01T12:56:16;25.30;45.70
21770;DHT22;11046;49.558;8.674;2022-09-01T12:59:28;25.30;45.50
21770;DHT22;11046;49.558;8.674;2022-09-01T13:03:07;25.60;46.00
21770;DHT22;11046;49.558;8.674;2022-09-01T13:06:11;25.90;45.30
21770;DHT22;11046;49.558;8.674;2022-09-01T13:09:21;25.80;45.00
21770;DHT22;11046;49.558;8.674;2022-09-01T13:12:25;25.40;44.50
21770;DHT22;11046;49.558;8.674;2022-09-01T13:15:36;25.30;44.80
21770;DHT22;11046;49.558;8.674;2022-09-01T13:18:51;25.10;45.00
21770;DHT22;11046;49.558;8.674;2022-09-01T13:21:57;25.20;45.40
21770;DHT22;11046;49.558;8.674;2022-09-01T13:25:03;25.30;45.70
21770;DHT22;11046;49.558;8.674;2022-09-01T13:28:06;25.70;46.30
21770;DHT22;11046;49.558;8.674;2022-09-01T13:31:16;26.10;46.30
21770;DHT22;11046;49.558;8.674;2022-09-01T13:34:36;26.60;46.00
21770;DHT22;11046;49.558;8.674;2022-09-01T13:37:48;27.00;45.10
21770;DHT22;11046;49.558;8.674;2022-09-01T13:40:55;27.30;44.80
21770;DHT22;11046;49.558;8.674;2022-09-01T13:44:02;27.70;44.20
21770;DHT22;11046;49.558;8.674;2022-09-01T13:47:29;27.90;43.80
21770;DHT22;11046;49.558;8.674;2022-09-01T13:50:45;28.10;43.20
21770;DHT22;11046;49.558;8.674;2022-09-01T13:53:59;28.30;42.60
21770;DHT22;11046;49.558;8.674;2022-09-01T13:57:12;28.50;41.80
21770;DHT22;11046;49.558;8.674;2022-09-01T14:00:29;28.60;41.10
21770;DHT22;11046;49.558;8.674;2022-09-01T14:03:32;28.50;40.50
21770;DHT22;11046;49.558;8.674;2022-09-01T14:06:42;28.50;40.30
21770;DHT22;11046;49.558;8.674;2022-09-01T14:09:56;28.30;39.70
21770;DHT22;11046;49.558;8.674;2022-09-01T14:13:06;28.10;39.70
21770;DHT22;11046;49.558;8.674;2022-09-01T14:16:13;27.70;39.80
21770;DHT22;11046;49.558;8.674;2022-09-01T14:19:18;27.30;40.00
21770;DHT22;11046;49.558;8.674;2022-09-01T14:22:24;27.20;40.40
21770;DHT22;11046;49.558;8.674;2022-09-01T14:25:30;27.40;40.30
21770;DHT22;11046;49.558;8.674;2022-09-01T14:28:37;27.20;40.00
21770;DHT22;11046;49.558;8.674;2022-09-01T14:32:12;26.80;40.20
21770;DHT22;11046;49.558;8.674;2022-09-01T14:35:20;26.50;40.60
21770;DHT22;11046;49.558;8.674;2022-09-01T14:38:28;26.30;41.00
21770;DHT22;11046;49.558;8.674;2022-09-01T14:41:31;26.30;41.40
21770;DHT22;11046;49.558;8.674;2022-09-01T14:44:39;26.30;41.20
21770;DHT22;11046;49.558;8.674;2022-09-01T14:47:51;26.40;41.10
21770;DHT22;11046;49.558;8.674;2022-09-01T14:51:32;26.50;41.10
21770;DHT22;11046;49.558;8.674;2022-09-01T14:54:39;26.40;41.00
21770;DHT22;11046;49.558;8.674;2022-09-01T14:57:50;26.40;41.10
21770;DHT22;11046;49.558;8.674;2022-09-01T15:00:58;26.50;40.90
21770;DHT22;11046;49.558;8.674;2022-09-01T15:04:19;26.30;40.60
21770;DHT22;11046;49.558;8.674;2022-09-01T15:07:26;26.20;40.70
21770;DHT22;11046;49.558;8.674;2022-09-01T15:10:29;26.10;41.00
21770;DHT22;11046;49.558;8.674;2022-09-01T15:13:36;26.00;41.20
21770;DHT22;11046;49.558;8.674;2022-09-01T15:16:40;25.90;41.10
21770;DHT22;11046;49.558;8.674;2022-09-01T15:19:41;25.80;41.20
21770;DHT22;11046;49.558;8.674;2022-09-01T15:22:45;25.60;41.10
21770;DHT22;11046;49.558;8.674;2022-09-01T15:25:49;25.40;41.20
21770;DHT22;11046;49.558;8.674;2022-09-01T15:28:50;25.40;41.60
21770;DHT22;11046;49.558;8.674;2022-09-01T15:31:52;25.30;41.70
21770;DHT22;11046;49.558;8.674;2022-09-01T15:34:53;25.30;42.00
21770;DHT22;11046;49.558;8.674;2022-09-01T15:37:54;25.30;42.00
21770;DHT22;11046;49.558;8.674;2022-09-01T15:40:55;25.40;41.70
21770;DHT22;11046;49.558;8.674;2022-09-01T15:43:57;25.30;41.40
21770;DHT22;11046;49.558;8.674;2022-09-01T15:46:58;25.40;41.90
21770;DHT22;11046;49.558;8.674;2022-09-01T15:49:58;25.40;42.10
21770;DHT22;11046;49.558;8.674;2022-09-01T15:53:02;25.30;42.00
21770;DHT22;11046;49.558;8.674;2022-09-01T15:56:05;25.30;41.60
21770;DHT22;11046;49.558;8.674;2022-09-01T15:59:07;25.30;41.50
21770;DHT22;11046;49.558;8.674;2022-09-01T16:02:08;25.20;41.40
21770;DHT22;11046;49.558;8.674;2022-09-01T16:05:10;25.10;41.60
21770;DHT22;11046;49.558;8.674;2022-09-01T16:08:11;24.90;41.80
21770;DHT22;11046;49.558;8.674;2022-09-01T16:11:13;24.90;41.80
21770;DHT22;11046;49.558;8.674;2022-09-01T16:14:14;24.80;42.40
21770;DHT22;11046;49.558;8.674;2022-09-01T16:17:25;24.80;41.70
21770;DHT22;11046;49.558;8.674;2022-09-01T16:21:25;24.70;41.60
21770;DHT22;11046;49.558;8.674;2022-09-01T16:24:07;24.70;41.60
21770;DHT22;11046;49.558;8.674;2022-09-01T16:27:16;24.70;41.80
21770;DHT22;11046;49.558;8.674;2022-09-01T16:30:21;24.70;42.10
21770;DHT22;11046;49.558;8.674;2022-09-01T16:33:22;24.70;41.80
21770;DHT22;11046;49.558;8.674;2022-09-01T16:39:50;24.60;41.70
21770;DHT22;11046;49.558;8.674;2022-09-01T16:46:30;24.50;41.90
21770;DHT22;11046;49.558;8.674;2022-09-01T16:49:47;24.40;42.00
21770;DHT22;11046;49.558;8.674;2022-09-01T16:53:02;24.40;42.20
21770;DHT22;11046;49.558;8.674;2022-09-01T16:56:24;24.30;42.40
21770;DHT22;11046;49.558;8.674;2022-09-01T16:59:36;24.30;42.40
21770;DHT22;11046;49.558;8.674;2022-09-01T17:03:15;24.40;42.30
21770;DHT22;11046;49.558;8.674;2022-09-01T17:14:08;24.10;42.20
21770;DHT22;11046;49.558;8.674;2022-09-01T17:17:14;24.00;42.20
21770;DHT22;11046;49.558;8.674;2022-09-01T17:20:39;23.90;42.30
21770;DHT22;11046;49.558;8.674;2022-09-01T17:23:58;23.80;42.30
21770;DHT22;11046;49.558;8.674;2022-09-01T17:27:03;23.70;42.50
21770;DHT22;11046;49.558;8.674;2022-09-01T17:30:08;23.60;42.70
21770;DHT22;11046;49.558;8.674;2022-09-01T17:33:30;23.40;43.10
21770;DHT22;11046;49.558;8.674;2022-09-01T17:37:13;23.30;43.50
21770;DHT22;11046;49.558;8.674;2022-09-01T17:40:44;23.30;44.00
21770;DHT22;11046;49.558;8.674;2022-09-01T17:44:18;23.20;43.90
21770;DHT22;11046;49.558;8.674;2022-09-01T17:57:24;22.80;44.40
21770;DHT22;11046;49.558;8.674;2022-09-01T18:00:42;22.70;44.60
21770;DHT22;11046;49.558;8.674;2022-09-01T18:10:57;22.50;45.10
21770;DHT22;11046;49.558;8.674;2022-09-01T18:14:15;22.40;45.10
21770;DHT22;11046;49.558;8.674;2022-09-01T18:17:29;22.40;45.50
21770;DHT22;11046;49.558;8.674;2022-09-01T18:20:41;22.30;45.50
21770;DHT22;11046;49.558;8.674;2022-09-01T18:23:45;22.20;45.80
21770;DHT22;11046;49.558;8.674;2022-09-01T18:26:53;22.10;46.00
21770;DHT22;11046;49.558;8.674;2022-09-01T18:29:54;22.00;46.50
21770;DHT22;11046;49.558;8.674;2022-09-01T18:36:32;21.80;47.20
21770;DHT22;11046;49.558;8.674;2022-09-01T18:39:44;21.70;47.30
21770;DHT22;11046;49.558;8.674;2022-09-01T18:56:23;21.30;48.20
21770;DHT22;11046;49.558;8.674;2022-09-01T19:03:28;21.10;49.40
21770;DHT22;11046;49.558;8.674;2022-09-01T19:06:58;21.00;49.70
21770;DHT22;11046;49.558;8.674;2022-09-01T19:23:39;20.60;50.90
21770;DHT22;11046;49.558;8.674;2022-09-01T19:26:44;20.60;51.30
21770;DHT22;11046;49.558;8.674;2022-09-01T19:29:50;20.50;51.10
21770;DHT22;11046;49.558;8.674;2022-09-01T19:32:52;20.50;51.30
21770;DHT22;11046;49.558;8.674;2022-09-01T19:36:03;20.50;51.40
21770;DHT22;11046;49.558;8.674;2022-09-01T19:39:06;20.50;51.60
21770;DHT22;11046;49.558;8.674;2022-09-01T19:48:34;20.30;51.80
21770;DHT22;11046;49.558;8.674;2022-09-01T19:58:57;20.10;52.50
21770;DHT22;11046;49.558;8.674;2022-09-01T20:02:04;20.00;53.00
21770;DHT22;11046;49.558;8.674;2022-09-01T20:08:38;19.90;53.30
21770;DHT22;11046;49.558;8.674;2022-09-01T20:11:46;19.90;53.50
21770;DHT22;11046;49.558;8.674;2022-09-01T20:18:01;19.80;53.50
21770;DHT22;11046;49.558;8.674;2022-09-01T20:21:07;19.70;53.70
21770;DHT22;11046;49.558;8.674;2022-09-01T20:27:33;19.60;54.10
21770;DHT22;11046;49.558;8.674;2022-09-01T20:30:50;19.50;54.40
21770;DHT22;11046;49.558;8.674;2022-09-01T20:37:20;19.30;54.80
21770;DHT22;11046;49.558;8.674;2022-09-01T20:40:38;19.30;54.80
21770;DHT22;11046;49.558;8.674;2022-09-01T20:43:44;19.20;55.00
21770;DHT22;11046;49.558;8.674;2022-09-01T20:46:50;19.10;55.10
21770;DHT22;11046;49.558;8.674;2022-09-01T20:49:51;19.10;55.20
21770;DHT22;11046;49.558;8.674;2022-09-01T20:59:48;18.90;55.90
21770;DHT22;11046;49.558;8.674;2022-09-01T21:15:47;18.60;56.60
21770;DHT22;11046;49.558;8.674;2022-09-01T21:22:15;18.50;56.90
21770;DHT22;11046;49.558;8.674;2022-09-01T21:25:16;18.50;57.00
21770;DHT22;11046;49.558;8.674;2022-09-01T21:28:18;18.40;57.20
21770;DHT22;11046;49.558;8.674;2022-09-01T21:31:19;18.30;57.30
21770;DHT22;11046;49.558;8.674;2022-09-01T21:34:20;18.30;57.40
21770;DHT22;11046;49.558;8.674;2022-09-01T21:37:21;18.30;57.50
21770;DHT22;11046;49.558;8.674;2022-09-01T21:40:24;18.30;57.60
21770;DHT22;11046;49.558;8.674;2022-09-01T21:43:32;18.20;57.60
21770;DHT22;11046;49.558;8.674;2022-09-01T21:46:33;18.20;57.80
21770;DHT22;11046;49.558;8.674;2022-09-01T21:49:34;18.20;57.70
21770;DHT22;11046;49.558;8.674;2022-09-01T21:52:35;18.20;57.70
21770;DHT22;11046;49.558;8.674;2022-09-01T21:55:36;18.20;57.70
21770;DHT22;11046;49.558;8.674;2022-09-01T21:58:38;18.20;57.60
21770;DHT22;11046;49.558;8.674;2022-09-01T22:01:38;18.20;57.80
21770;DHT22;11046;49.558;8.674;2022-09-01T22:04:39;18.10;57.70
21770;DHT22;11046;49.558;8.674;2022-09-01T22:07:42;18.20;57.70
21770;DHT22;11046;49.558;8.674;2022-09-01T22:10:49;18.20;57.70
21770;DHT22;11046;49.558;8.674;2022-09-01T22:13:51;18.30;57.60